Date,TemperatureHighF,TemperatureAvgF,TemperatureLowF,DewpointHighF,DewpointAvgF,DewpointLowF,HumidityHigh,HumidityAvg,HumidityLow,PressureMaxIn,PressureMinIn,WindSpeedMaxMPH,WindSpeedAvgMPH,GustSpeedMaxMPH,PrecipitationSumIn
2013-1-1,24.2,23.2,21.9,19.0,17.0,15.0,88,77,70,30.19,30.07,20,8,23,0.00
2013-1-2,26.6,25.0,22.7,22.0,20.1,17.0,87,81,75,30.15,30.05,10,5,15,0.00
2013-1-3,31.5,28.8,25.1,27.0,24.3,22.0,89,83,75,30.11,30.00,25,10,29,0.00
2013-1-4,37.5,30.3,26.0,32.0,25.9,22.0,89,83,71,30.14,29.92,42,16,42,0.00
2013-1-5,38.2,33.2,27.8,34.0,27.3,23.0,85,79,72,30.22,29.88,21,4,24,0.00
2013-1-6,36.8,32.5,27.7,32.0,26.9,20.0,90,80,70,30.28,29.83,21,7,22,0.00
2013-1-7,39.8,34.4,26.1,32.0,26.9,19.0,81,74,60,30.29,29.94,29,11,35,0.00
2013-1-8,42.4,37.7,33.3,35.0,31.6,28.0,87,79,69,30.16,29.96,13,4,21,0.00
2013-1-9,41.6,39.3,37.9,35.0,32.2,29.0,82,76,68,30.44,29.83,26,15,36,0.00
2013-1-10,41.1,37.0,28.4,30.0,27.7,26.0,89,70,58,30.55,30.07,11,3,16,0.00
2013-1-11,47.9,40.6,35.5,46.0,39.1,31.0,97,94,75,30.05,29.66,11,4,19,0.00
2013-1-12,51.9,44.9,34.1,47.0,39.1,28.0,92,80,69,29.97,29.60,30,13,40,0.00
2013-1-13,34.0,31.0,26.5,30.0,27.0,21.0,92,85,78,30.04,29.86,20,6,22,0.00
2013-1-14,26.9,24.0,22.2,23.0,17.7,14.0,87,77,67,30.41,30.04,20,11,26,0.00
2013-1-15,29.6,25.2,20.2,21.0,17.2,12.0,80,72,65,30.43,30.09,19,7,30,0.00
2013-1-16,33.3,29.6,26.5,30.0,24.0,19.0,94,80,71,30.09,29.69,27,10,40,0.00
2013-1-17,27.4,19.3,16.1,20.0,12.2,7.0,86,74,65,30.39,30.03,18,9,23,0.00
2013-1-18,41.0,24.6,14.3,35.0,18.8,7.0,88,78,66,30.42,29.77,14,7,21,0.00
2013-1-19,41.6,36.3,28.9,37.0,31.3,-99.9,95,87,73,29.84,29.46,25,8,33,0.00
2013-1-20,26.7,17.5,14.9,24.0,12.2,7.0,91,79,68,30.19,29.58,33,14,37,0.00
2013-1-21,15.3,9.4,3.2,13.0,5.0,-99.9,90,85,77,30.17,30.02,19,1,24,0.00
2013-1-22,11.1,6.6,3.5,6.0,2.0,-1.0,88,81,71,30.31,30.16,18,10,21,0.00
2013-1-23,18.8,14.1,11.0,14.0,9.6,4.0,89,82,72,30.30,30.10,18,11,26,0.00
2013-1-24,15.2,12.5,9.6,13.0,6.4,4.0,89,77,68,30.69,30.28,8,2,16,0.00
2013-1-25,23.8,17.2,11.6,20.0,13.2,4.0,90,84,70,30.50,29.99,10,4,14,0.00
2013-1-26,28.6,25.7,22.9,23.0,19.7,15.0,88,78,70,30.43,30.10,11,3,13,0.00
2013-1-27,31.9,28.1,25.6,28.0,22.9,19.0,94,81,66,30.43,30.05,9,3,14,0.00
2013-1-28,33.9,31.9,28.4,33.0,30.8,27.0,97,95,94,30.05,29.85,10,2,13,0.00
2013-1-29,53.9,40.2,32.1,52.0,39.1,30.0,97,95,92,30.01,29.50,14,5,18,0.00
2013-1-30,36.0,31.4,23.6,35.0,30.3,22.0,97,95,90,29.51,29.18,9,4,14,0.00
2013-1-31,23.3,20.3,19.1,22.0,16.9,13.0,94,86,76,29.93,29.32,21,13,23,0.00
2013-2-1,19.2,15.8,12.0,14.0,11.4,8.0,90,82,76,30.19,29.93,18,12,26,0.00
2013-2-2,18.6,14.5,11.8,13.0,9.0,6.0,87,79,64,30.15,30.06,19,3,25,0.00
2013-2-3,19.5,16.6,13.6,15.0,10.5,6.0,91,77,65,30.05,29.89,16,8,19,0.00
2013-2-4,19.0,16.1,8.4,10.0,8.5,5.0,84,72,64,30.04,29.98,11,4,14,0.00
2013-2-5,26.2,18.2,2.3,23.0,13.4,-1.0,92,82,70,30.06,29.75,14,6,17,0.00
2013-2-6,28.5,24.4,21.1,24.0,16.6,11.0,93,73,60,30.29,30.07,12,4,14,0.00
2013-2-7,29.5,27.7,23.8,28.0,26.2,22.0,95,94,92,30.23,30.08,7,2,8,0.00
2013-2-8,25.4,22.0,12.5,22.0,19.0,9.0,94,88,76,30.43,30.11,7,2,11,0.00
2013-2-9,31.8,18.1,1.4,21.0,12.2,-2.0,92,79,62,30.45,30.23,5,2,9,0.00
2013-2-10,37.8,29.8,22.4,36.0,25.3,18.0,95,83,73,30.24,29.50,16,6,21,0.00
2013-2-11,43.9,35.9,30.6,42.0,33.2,23.0,95,89,73,29.83,29.39,22,11,26,0.00
2013-2-12,30.5,28.4,27.0,25.0,23.2,22.0,88,81,74,30.01,29.84,19,10,23,0.00
2013-2-13,36.5,33.3,27.0,31.0,28.9,23.0,89,84,78,29.88,29.70,12,6,15,0.00
2013-2-14,35.1,32.1,25.7,33.0,30.2,21.0,96,93,81,29.93,29.62,14,4,18,0.00
2013-2-15,25.6,23.0,18.7,21.0,17.1,12.0,89,78,63,30.17,29.93,13,7,16,0.00
2013-2-16,21.6,18.4,15.7,16.0,11.5,9.0,87,74,61,30.20,30.10,8,2,14,0.00
2013-2-17,21.8,17.5,13.3,14.0,11.3,6.0,85,77,66,30.24,30.13,10,3,12,0.00
2013-2-18,42.3,31.0,18.2,37.0,22.2,12.0,95,71,57,30.13,29.41,11,6,17,0.00
2013-2-19,40.0,26.8,17.5,39.0,24.6,13.0,96,91,80,29.95,29.24,28,16,28,0.00
2013-2-20,23.9,20.4,17.8,20.0,16.2,13.0,91,83,77,30.37,29.95,18,10,23,0.00
2013-2-21,23.4,20.6,18.2,19.0,16.2,14.0,88,83,76,30.48,30.33,7,3,21,0.00
2013-2-22,29.2,26.2,19.4,27.0,23.6,14.0,93,89,79,30.33,29.85,13,4,18,0.00
2013-2-23,30.7,28.7,26.2,29.0,26.7,24.0,96,92,82,29.88,29.79,10,4,14,0.00
2013-2-24,35.2,32.1,29.3,30.0,28.5,26.0,94,87,79,30.17,29.85,8,3,10,0.00
2013-2-25,36.1,32.9,26.0,31.0,28.0,24.0,92,82,72,30.23,30.15,5,1,7,0.00
2013-2-26,37.5,33.2,29.4,28.0,26.4,23.0,82,76,67,30.20,29.79,11,4,21,0.00
2013-2-27,34.1,32.8,31.2,32.0,30.8,28.0,95,92,82,29.78,29.67,8,3,13,0.00
2013-2-28,33.7,30.8,25.7,32.0,26.3,19.0,95,83,70,30.14,29.75,13,6,19,0.00
2013-3-1,26.5,23.2,19.7,20.0,17.3,15.0,85,78,67,30.28,30.14,8,4,14,0.00
2013-3-2,26.0,22.2,18.3,21.0,16.9,13.0,86,80,73,30.25,30.18,9,2,13,0.00
2013-3-3,25.8,23.7,21.4,19.0,17.1,15.0,85,76,67,30.17,30.12,8,2,12,0.00
2013-3-4,27.8,23.2,17.9,22.0,17.6,14.0,87,79,69,30.23,30.16,4,1,7,0.00
2013-3-5,32.3,23.4,9.3,24.0,18.2,6.0,91,81,65,30.22,30.04,8,2,11,0.00
2013-3-6,36.0,31.7,27.2,31.0,27.9,23.0,94,86,79,30.33,30.13,10,2,16,0.00
2013-3-7,30.2,28.0,26.9,26.0,21.9,20.0,89,78,68,30.50,30.33,5,2,12,0.00
2013-3-8,34.5,29.7,22.6,29.0,24.1,20.0,89,80,68,30.56,30.41,8,2,10,0.00
2013-3-9,42.9,35.3,25.5,35.0,26.5,22.0,93,72,48,30.40,29.95,8,3,14,0.00
2013-3-10,42.8,38.2,35.1,40.0,36.7,34.0,97,94,87,29.95,29.80,9,3,15,0.00
2013-3-11,44.9,38.7,31.7,44.0,37.8,31.0,97,96,93,29.79,29.48,18,4,19,0.00
2013-3-12,31.8,28.6,25.2,31.0,25.3,20.0,95,87,73,29.91,29.59,16,9,20,0.00
2013-3-13,30.4,27.1,23.4,22.0,19.6,15.0,91,74,54,30.27,29.91,13,9,18,0.00
2013-3-14,35.0,30.9,28.4,29.0,22.5,20.0,78,71,64,30.29,30.04,16,7,20,0.00
2013-3-15,35.2,31.2,24.2,32.0,25.0,15.0,91,78,64,30.03,29.91,22,8,29,0.00
2013-3-16,25.4,22.7,19.9,21.0,16.9,13.0,92,79,66,30.09,29.94,9,2,11,0.00
2013-3-17,29.1,22.5,18.5,23.0,12.6,8.0,89,66,48,30.39,30.09,17,3,20,0.00
2013-3-18,40.7,27.6,18.4,31.0,20.5,11.0,94,76,41,30.23,29.53,13,5,18,0.00
2013-3-19,31.9,27.1,23.4,30.0,23.3,18.0,94,86,63,29.89,29.50,24,16,28,0.00
2013-3-20,28.9,24.5,22.1,22.0,18.3,15.0,89,77,62,29.96,29.89,17,11,23,0.00
2013-3-21,28.6,27.6,24.7,26.0,23.1,20.0,90,83,76,30.02,29.90,16,8,19,0.00
2013-3-22,32.1,29.6,26.3,28.0,25.0,21.0,89,83,76,30.11,30.00,9,4,11,0.00
2013-3-23,34.6,31.4,28.4,29.0,26.8,23.0,88,83,74,30.18,30.10,6,2,8,0.00
2013-3-24,35.0,31.7,29.1,28.0,25.2,22.0,86,77,62,30.14,29.89,8,2,10,0.00
2013-3-25,38.8,33.5,30.0,31.0,27.6,25.0,87,79,69,30.07,29.87,8,3,15,0.00
2013-3-26,38.7,35.6,33.7,33.0,31.7,29.0,92,85,74,30.21,30.06,8,4,12,0.00
2013-3-27,40.2,36.1,34.0,34.0,30.9,26.0,88,81,69,30.28,30.19,9,5,13,0.00
2013-3-28,41.4,36.6,34.4,33.0,29.0,24.0,82,74,57,30.33,30.28,7,3,10,0.00
2013-3-29,41.1,33.8,24.6,33.0,26.5,19.0,92,75,53,30.35,30.27,4,1,6,0.00
2013-3-30,48.3,39.9,25.3,41.0,25.4,18.0,91,58,33,30.27,29.82,13,3,18,0.00
2013-3-31,43.8,37.5,29.9,41.0,34.8,22.0,97,90,69,29.84,29.62,24,10,25,0.00
2013-4-1,30.7,27.6,24.4,24.0,19.6,15.0,82,72,59,30.15,29.84,18,10,22,0.00
2013-4-2,34.0,30.4,28.5,23.0,18.7,15.0,75,62,54,30.32,30.10,15,8,17,0.00
2013-4-3,34.4,30.8,28.2,23.0,18.9,15.0,71,62,53,30.51,30.31,13,4,14,0.00
2013-4-4,43.1,37.8,31.6,36.0,26.1,12.0,92,64,43,30.31,29.98,23,9,30,0.00
2013-4-5,36.8,32.7,29.1,28.0,21.9,18.0,75,65,57,30.30,30.07,8,3,15,0.00
2013-4-6,46.9,36.1,28.6,36.0,27.3,19.0,86,71,60,30.26,29.57,17,6,21,0.00
2013-4-7,49.2,38.1,33.4,45.0,34.7,29.0,96,88,69,30.07,29.47,20,7,22,0.00
2013-4-8,40.6,36.1,31.6,38.0,33.4,29.0,96,89,79,30.05,29.80,10,3,15,0.00
2013-4-9,39.7,36.8,33.4,39.0,35.8,31.0,97,96,91,30.16,30.04,7,1,16,0.00
2013-4-10,38.4,35.1,32.9,34.0,32.5,31.0,97,91,81,30.18,30.08,6,1,10,0.00
2013-4-11,36.2,33.8,30.7,31.0,27.6,25.0,95,78,66,30.13,29.79,17,4,19,0.00
2013-4-12,35.4,32.6,30.5,34.0,31.3,29.0,97,95,93,29.79,29.64,9,1,11,0.00
2013-4-13,36.3,33.9,32.2,33.0,31.3,30.0,96,90,79,29.97,29.73,16,6,22,0.00
2013-4-14,42.9,36.2,28.3,32.0,29.5,26.0,96,78,56,30.11,29.87,15,3,23,0.00
2013-4-15,55.3,46.3,38.6,51.0,42.0,32.0,96,85,75,29.92,29.74,18,7,27,0.00
2013-4-16,43.7,39.6,37.3,37.0,33.7,32.0,87,79,71,30.37,29.92,12,7,16,0.00
2013-4-17,48.6,39.4,29.7,37.0,33.1,28.0,94,79,57,30.44,30.07,7,2,13,0.00
2013-4-18,51.8,42.5,37.7,51.0,41.2,36.0,97,95,86,30.07,29.35,12,3,18,0.00
2013-4-19,56.0,38.6,29.7,55.0,32.5,22.0,97,79,65,29.74,29.24,31,16,40,0.00
2013-4-20,34.2,29.3,26.0,25.0,21.5,19.0,93,73,57,30.50,29.74,17,8,21,0.00
2013-4-21,46.3,34.4,24.7,32.0,24.0,16.0,88,68,30,30.64,30.38,7,2,10,0.00
2013-4-22,56.2,45.3,39.4,35.0,32.1,29.0,82,61,41,30.38,30.13,10,2,14,0.00
2013-4-23,55.6,43.9,33.7,46.0,36.2,32.0,96,76,56,30.13,29.89,14,6,21,0.00
2013-4-24,43.4,38.0,34.8,33.0,30.7,26.0,88,76,51,30.02,29.96,12,5,17,0.00
2013-4-25,43.6,40.6,37.3,36.0,32.5,27.0,90,74,58,30.30,29.93,17,8,26,0.00
2013-4-26,63.9,50.6,38.2,44.0,34.2,30.0,78,55,32,30.36,30.16,21,6,25,0.00
2013-4-27,58.9,54.7,51.1,48.0,43.2,35.0,80,66,43,30.23,30.09,14,7,22,0.00
2013-4-28,68.2,54.0,44.4,43.0,39.4,36.0,81,59,33,30.10,29.84,6,1,11,0.00
2013-4-29,59.2,53.1,43.6,56.0,49.3,39.0,97,87,60,29.89,29.84,6,2,11,0.00
2013-4-30,79.3,66.2,57.3,61.0,56.8,53.0,93,73,49,29.87,29.75,13,6,19,0.00
2013-5-1,74.2,55.5,44.2,61.0,49.0,38.0,90,79,62,30.31,29.86,10,3,21,0.00
2013-5-2,50.9,42.1,38.7,42.0,37.8,36.0,90,85,71,30.34,30.25,11,3,19,0.00
2013-5-3,49.6,42.0,37.5,43.0,38.9,35.0,93,88,78,30.28,30.09,6,2,9,0.00
2013-5-4,71.4,55.7,41.1,51.0,44.1,39.0,95,68,44,30.15,30.05,7,1,10,0.00
2013-5-5,69.5,57.4,47.5,44.0,38.7,35.0,79,51,32,30.13,30.04,6,2,10,0.00
2013-5-6,64.8,49.6,41.8,46.0,41.3,39.0,93,76,39,30.14,30.03,4,1,8,0.00
2013-5-7,73.5,56.0,45.5,45.0,40.9,36.0,88,60,29,30.12,30.01,5,1,9,0.00
2013-5-8,65.9,57.1,48.5,52.0,43.2,33.0,82,61,35,30.07,29.98,3,1,6,0.00
2013-5-9,58.9,51.1,42.9,48.0,42.9,36.0,93,74,58,30.06,29.96,6,1,11,0.00
2013-5-10,44.6,41.5,38.3,44.0,39.8,37.0,96,93,88,30.05,29.98,9,3,13,0.00
2013-5-11,45.6,40.0,34.3,43.0,37.3,33.0,96,90,74,29.98,29.76,17,4,22,0.00
2013-5-12,40.0,37.4,34.9,35.0,31.9,29.0,91,80,70,30.13,29.86,21,12,23,0.00
2013-5-13,47.0,41.7,37.7,36.0,31.0,21.0,82,67,37,30.22,30.05,9,4,11,0.00
2013-5-14,63.5,50.8,41.9,48.0,38.2,20.0,79,63,35,30.06,29.57,14,4,15,0.00
2013-5-15,70.0,56.4,47.4,53.0,45.5,43.0,86,68,46,29.79,29.45,21,6,23,0.00
2013-5-16,60.4,53.7,46.4,47.0,42.3,39.0,87,66,47,30.10,29.78,5,1,8,0.00
2013-5-17,63.7,54.1,44.5,48.0,43.8,40.0,89,70,49,30.22,30.09,7,1,8,0.00
2013-5-18,74.6,62.3,53.7,50.0,46.4,44.0,75,58,38,30.19,30.00,8,3,10,0.00
2013-5-19,81.1,64.0,51.2,62.0,52.0,46.0,93,66,52,30.00,29.83,8,2,11,0.00
2013-5-20,84.0,69.1,57.0,69.0,62.1,54.0,93,79,58,29.86,29.71,7,2,12,0.00
2013-5-21,69.3,60.5,48.5,64.0,57.8,48.0,97,91,74,29.75,29.64,13,2,17,0.00
2013-5-22,55.4,49.2,46.4,55.0,48.6,46.0,98,98,97,29.79,29.69,4,0,5,0.00
2013-5-23,49.5,43.9,40.6,49.0,40.8,36.0,98,89,74,30.31,29.80,9,3,18,0.00
2013-5-24,48.6,43.1,39.2,40.0,36.8,34.0,91,79,63,30.47,30.31,5,2,11,0.00
2013-5-25,58.9,47.0,38.2,44.0,39.6,35.0,96,77,41,30.49,30.35,3,1,8,0.00
2013-5-26,64.6,49.3,40.0,45.0,40.1,34.0,94,73,36,30.41,30.25,5,0,7,0.00
2013-5-27,72.5,59.8,46.4,45.0,39.2,32.0,73,50,23,30.27,29.99,6,1,8,0.00
2013-5-28,60.7,56.5,49.2,59.0,50.7,41.0,97,82,49,29.98,29.76,6,1,8,0.00
2013-5-29,63.3,55.9,48.1,62.0,54.5,47.0,98,95,84,29.95,29.76,6,1,10,0.00
2013-5-30,85.5,74.4,57.7,70.0,64.0,55.0,96,72,51,29.92,29.81,9,3,15,0.00
2013-5-31,75.4,69.6,62.0,69.0,63.4,58.0,94,81,59,29.84,29.73,15,3,16,0.00
2013-6-1,75.9,64.2,54.7,65.0,59.7,53.0,97,86,66,29.74,29.62,6,1,10,0.00
2013-6-2,59.4,46.5,43.0,58.0,43.1,37.0,96,88,74,30.07,29.62,10,4,11,0.00
2013-6-3,56.5,48.5,41.1,49.0,42.9,37.0,91,81,60,30.17,30.05,11,2,13,0.00
2013-6-4,63.2,51.7,42.4,46.0,42.6,36.0,96,74,37,30.25,30.18,2,0,6,0.00
2013-6-5,58.1,53.9,48.0,54.0,49.0,41.0,92,84,70,30.22,30.08,3,1,7,0.00
2013-6-6,68.5,59.8,53.0,51.0,45.7,42.0,76,60,50,30.09,29.96,6,1,7,0.00
2013-6-7,60.4,54.8,50.4,49.0,46.1,43.0,89,73,57,30.01,29.93,2,0,3,0.00
2013-6-8,62.3,55.2,49.3,52.0,48.5,42.0,91,79,63,30.08,29.94,3,0,5,0.00
2013-6-9,74.4,65.1,52.1,59.0,54.3,45.0,88,69,57,30.12,29.95,6,1,6,0.00
2013-6-10,68.4,62.2,54.0,63.0,55.7,52.0,96,80,64,29.95,29.80,6,1,9,0.00
2013-6-11,63.8,57.3,52.8,61.0,55.3,52.0,98,93,85,29.92,29.83,5,0,6,0.00
2013-6-12,69.2,59.8,54.0,61.0,56.5,53.0,97,89,69,29.94,29.76,2,0,3,0.00
2013-6-13,62.6,56.4,52.7,55.0,51.5,50.0,92,84,67,30.06,29.74,6,1,11,0.00
2013-6-14,60.0,54.1,48.6,50.0,47.3,24.0,96,79,31,30.17,30.05,3,0,4,0.00
2013-6-15,70.1,60.7,49.6,61.0,51.9,36.0,90,74,47,30.06,29.84,3,0,5,0.00
2013-6-16,69.0,61.2,54.8,63.0,57.4,52.0,98,88,66,29.87,29.76,12,4,16,0.00
2013-6-17,63.6,58.4,54.5,56.0,54.5,52.0,94,87,77,30.03,29.84,4,0,7,0.00
2013-6-18,67.5,57.5,50.0,54.0,50.0,43.0,96,78,43,30.15,30.03,3,0,6,0.00
2013-6-19,65.2,57.9,49.6,54.0,47.3,41.0,90,69,48,30.20,30.12,3,0,5,0.00
2013-6-20,72.6,65.1,55.6,60.0,52.1,43.0,86,64,42,30.18,30.11,5,1,6,0.00
2013-6-21,83.2,71.4,65.0,67.0,61.2,56.0,84,71,55,30.15,29.92,11,3,18,0.00
2013-6-22,74.1,61.6,57.6,65.0,59.0,57.0,97,91,73,30.09,29.96,6,1,9,0.00
2013-6-23,86.4,70.9,60.4,72.0,65.4,59.0,97,84,60,30.01,29.84,7,2,12,0.00
2013-6-24,77.1,71.8,65.8,69.0,66.0,61.0,91,82,75,29.97,29.84,8,3,10,0.00
2013-6-25,72.7,68.3,64.4,67.0,63.8,61.0,95,85,77,29.87,29.81,10,3,12,0.00
2013-6-26,74.5,67.0,60.7,67.0,63.9,59.0,97,90,78,29.83,29.75,4,0,7,0.00
2013-6-27,73.3,66.5,62.1,66.0,62.5,58.0,93,87,78,29.80,29.66,5,1,11,0.00
2013-6-28,68.8,64.1,59.9,64.0,60.7,58.0,94,89,82,29.69,29.60,3,1,9,0.00
2013-6-29,70.7,64.5,60.6,63.0,60.4,56.0,94,87,69,29.83,29.62,2,0,7,0.00
2013-6-30,75.2,64.8,58.0,59.0,55.1,49.0,92,73,40,30.05,29.83,5,0,8,0.00
2013-7-1,76.7,65.9,57.3,61.0,54.2,43.0,89,67,46,30.16,30.05,5,0,7,0.00
2013-7-2,71.3,64.2,54.3,56.0,50.6,42.0,82,62,48,30.17,30.09,2,0,6,0.00
2013-7-3,77.2,67.7,59.7,61.0,56.9,51.0,87,70,53,30.12,30.02,2,0,4,0.00
2013-7-4,74.1,66.8,60.8,65.0,60.6,57.0,96,81,63,30.09,30.02,9,3,11,0.00
2013-7-5,76.0,71.4,67.1,65.0,62.2,57.0,83,73,57,30.07,29.99,9,2,12,0.00
2013-7-6,76.0,73.0,69.9,65.0,61.2,53.0,76,67,51,30.03,29.95,9,4,9,0.00
2013-7-7,78.4,73.3,69.2,68.0,65.5,62.0,85,77,67,29.98,29.91,9,1,10,0.00
2013-7-8,74.1,68.5,65.0,73.0,66.8,64.0,98,94,81,30.00,29.89,9,2,11,0.00
2013-7-9,74.0,67.8,65.0,70.0,66.6,65.0,99,96,85,30.00,29.72,5,0,9,0.00
2013-7-10,71.7,67.5,62.3,70.0,63.9,60.0,95,88,76,29.97,29.72,13,5,17,0.00
2013-7-11,70.7,65.2,61.1,61.0,58.6,55.0,91,80,63,30.12,29.97,3,0,6,0.00
2013-7-12,72.8,65.3,58.5,66.0,59.9,54.0,93,83,69,30.20,30.10,0,0,0,0.00
2013-7-13,76.3,70.3,63.9,65.0,62.2,58.0,91,76,62,30.19,30.11,6,1,8,0.00
2013-7-14,80.3,73.3,66.4,68.0,64.9,61.0,86,75,66,30.26,30.19,4,0,5,0.00
2013-7-15,87.4,75.6,69.3,72.0,67.6,63.0,90,77,54,30.30,30.22,2,0,3,0.00
2013-7-16,82.6,77.5,70.3,74.0,70.1,65.0,88,78,64,30.27,30.18,8,2,8,0.00
2013-7-17,82.8,79.4,76.3,75.0,73.6,73.0,89,82,75,30.22,30.09,8,3,10,0.00
2013-7-18,87.5,81.1,75.4,75.0,73.1,72.0,89,77,63,30.10,29.79,13,5,22,0.00
2013-7-19,83.1,78.7,70.5,73.0,70.3,63.0,85,75,68,29.78,29.63,20,9,26,0.00
2013-7-20,71.5,67.9,59.1,65.0,56.5,49.0,81,67,51,30.02,29.75,7,1,9,0.00
2013-7-21,71.9,63.0,53.9,59.0,54.8,50.0,91,75,58,30.05,29.93,3,0,4,0.00
2013-7-22,81.4,71.7,63.4,70.0,63.9,57.0,87,77,61,29.93,29.64,11,3,13,0.00
2013-7-23,76.9,65.1,59.3,68.0,56.3,48.0,86,73,61,29.97,29.63,13,4,17,0.00
2013-7-24,69.6,62.1,54.0,55.0,51.2,47.0,85,68,54,30.09,29.97,3,1,10,0.00
2013-7-25,76.2,66.1,55.6,62.0,53.6,44.0,89,65,42,30.08,29.96,9,3,11,0.00
2013-7-26,77.1,67.2,61.2,67.0,59.7,49.0,96,78,55,29.97,29.82,18,3,22,0.00
2013-7-27,62.5,58.0,55.4,61.0,54.8,51.0,96,89,73,29.87,29.80,8,2,11,0.00
2013-7-28,60.2,58.0,56.1,56.0,53.5,51.0,95,85,75,29.90,29.76,12,4,16,0.00
2013-7-29,65.8,60.3,56.4,59.0,56.3,54.0,96,87,75,30.18,29.90,8,3,11,0.00
2013-7-30,70.8,64.2,56.5,63.0,57.8,54.0,94,80,70,30.22,30.11,4,0,6,0.00
2013-7-31,71.3,67.4,63.8,67.0,62.2,55.0,89,83,71,30.11,29.89,7,3,9,0.00
2013-8-1,71.3,66.1,63.6,63.0,60.9,58.0,94,84,68,29.91,29.86,8,2,10,0.00
2013-8-2,71.0,65.9,61.4,64.0,60.7,57.0,91,83,73,29.93,29.81,11,2,13,0.00
2013-8-3,69.9,65.0,61.0,59.0,56.5,54.0,83,74,66,30.11,29.93,9,1,11,0.00
2013-8-4,69.0,63.3,57.1,58.0,53.6,48.0,86,71,50,30.22,30.11,3,1,9,0.00
2013-8-5,68.2,61.7,53.1,61.0,54.4,49.0,93,78,61,30.12,29.89,3,0,4,0.00
2013-8-6,75.0,69.0,62.5,67.0,63.3,57.0,88,82,70,29.89,29.78,10,2,11,0.00
2013-8-7,71.8,66.8,62.5,68.0,63.0,54.0,95,87,74,29.99,29.65,21,4,30,0.00
2013-8-8,71.8,62.9,55.2,61.0,55.9,52.0,94,79,61,30.07,29.99,5,1,6,0.00
2013-8-9,71.9,65.6,57.9,65.0,57.4,50.0,91,75,62,30.05,29.92,11,3,13,0.00
2013-8-10,70.5,63.4,54.9,60.0,55.7,48.0,89,76,66,30.16,30.05,5,2,7,0.00
2013-8-11,72.4,66.6,60.0,64.0,60.7,55.0,91,82,67,30.11,30.03,7,3,10,0.00
2013-8-12,71.1,65.3,58.8,65.0,61.4,53.0,94,87,73,30.04,29.88,9,3,13,0.00
2013-8-13,62.5,58.9,56.3,53.0,49.5,47.0,81,71,61,30.14,29.97,7,2,12,0.00
2013-8-14,65.1,60.6,58.0,54.0,51.4,47.0,80,72,59,30.21,30.12,8,2,9,0.00
2013-8-15,70.6,64.1,58.0,61.0,55.5,48.0,88,74,65,30.13,30.07,5,3,8,0.00
2013-8-16,72.9,65.2,56.6,65.0,60.0,55.0,95,84,59,30.19,30.11,4,1,4,0.00
2013-8-17,73.7,66.8,57.3,65.0,59.0,53.0,94,77,53,30.26,30.18,6,2,7,0.00
2013-8-18,72.5,67.0,58.4,65.0,59.4,54.0,91,77,62,30.22,30.08,7,2,8,0.00
2013-8-19,76.2,70.9,65.8,65.0,60.9,55.0,84,71,61,30.09,29.98,10,4,14,0.00
2013-8-20,81.5,74.8,70.2,66.0,64.5,62.0,81,71,59,30.05,29.98,13,5,14,0.00
2013-8-21,85.0,77.7,73.1,70.0,66.7,63.0,76,69,57,30.00,29.86,21,6,29,0.00
2013-8-22,74.2,69.6,63.2,67.0,62.8,57.0,95,79,61,30.13,30.01,4,1,6,0.00
2013-8-23,74.9,65.6,58.7,65.0,60.2,57.0,97,83,62,30.22,30.13,7,0,7,0.00
2013-8-24,73.6,67.9,61.5,65.0,60.2,56.0,87,77,64,30.28,30.18,5,1,6,0.00
2013-8-25,84.2,76.9,68.2,69.0,63.8,57.0,71,64,59,30.20,29.98,13,7,20,0.00
2013-8-26,79.8,74.8,70.1,71.0,68.7,68.0,94,82,68,30.05,29.93,17,5,23,0.00
2013-8-27,72.4,70.4,68.7,72.0,69.1,67.0,98,95,89,29.98,29.83,7,0,12,0.00
2013-8-28,75.5,69.9,66.7,71.0,68.5,66.0,98,95,84,30.04,29.84,2,0,3,0.00
2013-8-29,78.3,71.8,66.2,73.0,68.5,65.0,98,89,76,30.08,29.95,4,0,5,0.00
2013-8-30,77.3,72.9,69.5,71.0,67.8,64.0,93,84,70,29.95,29.75,16,5,22,0.00
2013-8-31,74.2,68.7,63.8,67.0,65.2,63.0,97,88,77,29.89,29.80,2,0,5,0.00
2013-9-1,78.9,68.7,63.2,69.0,65.0,60.0,96,88,68,29.85,29.67,10,2,11,0.00
2013-9-2,62.7,59.8,57.2,60.0,55.1,53.0,92,84,74,29.97,29.80,11,6,13,0.00
2013-9-3,68.1,63.6,61.2,60.0,56.5,53.0,87,78,65,30.05,29.95,11,5,14,0.00
2013-9-4,68.0,64.7,59.1,63.0,57.0,45.0,90,77,58,30.17,29.94,9,3,11,0.00
2013-9-5,63.4,57.6,53.2,49.0,47.2,43.0,85,69,55,30.34,30.17,3,0,8,0.00
2013-9-6,75.6,63.7,50.6,63.0,53.9,45.0,90,72,52,30.25,29.96,8,3,10,0.00
2013-9-7,73.5,70.9,66.0,68.0,66.1,59.0,94,85,65,30.01,29.86,11,4,13,0.00
2013-9-8,70.4,64.7,59.0,63.0,56.7,53.0,90,76,55,30.15,30.01,3,0,8,0.00
2013-9-9,79.5,67.1,57.6,73.0,61.4,50.0,90,82,68,30.03,29.70,7,1,15,0.00
2013-9-10,83.1,77.3,69.6,74.0,69.1,67.0,93,76,69,29.96,29.70,14,6,21,0.00
2013-9-11,73.4,69.3,65.4,68.0,65.8,64.0,96,89,79,29.97,29.89,11,4,13,0.00
2013-9-12,68.6,62.6,53.8,65.0,56.5,47.0,92,81,72,30.09,29.91,9,3,14,0.00
2013-9-13,57.5,52.7,47.5,50.0,44.5,41.0,90,74,60,30.22,30.09,9,1,16,0.00
2013-9-14,63.5,55.0,45.3,54.0,48.6,44.0,95,80,64,30.18,30.02,11,3,15,0.00
2013-9-15,61.9,58.4,51.9,57.0,54.2,46.0,94,86,78,30.23,30.00,10,3,15,0.00
2013-9-16,55.8,50.5,45.7,47.0,43.2,41.0,90,76,61,30.45,30.24,4,0,12,0.00
2013-9-17,62.3,53.3,44.4,52.0,46.5,42.0,93,79,62,30.43,30.20,3,1,6,0.00
2013-9-18,74.2,63.7,51.4,62.0,54.5,47.0,90,72,62,30.20,29.93,4,1,7,0.00
2013-9-19,77.6,70.6,64.3,71.0,66.2,60.0,96,86,71,29.95,29.73,10,2,15,0.00
2013-9-20,72.2,67.8,60.9,67.0,64.6,56.0,95,89,82,29.74,29.66,13,5,16,0.00
2013-9-21,60.7,56.1,51.0,56.0,50.1,43.0,92,80,69,29.95,29.72,9,5,12,0.00
2013-9-22,53.5,50.9,49.2,46.0,42.1,40.0,81,72,63,30.13,29.94,5,1,11,0.00
2013-9-23,60.9,51.9,44.1,50.0,44.9,41.0,91,78,59,30.22,30.13,3,0,5,0.00
2013-9-24,63.3,54.3,46.9,54.0,49.0,44.0,93,83,70,30.17,30.03,3,1,5,0.00
2013-9-25,67.5,57.2,48.6,56.0,51.1,45.0,96,81,56,30.07,30.01,2,0,3,0.00
2013-9-26,66.6,58.2,49.8,58.0,53.7,49.0,96,85,68,30.14,30.04,2,0,3,0.00
2013-9-27,72.4,61.8,53.1,58.0,54.2,49.0,92,77,56,30.22,30.13,3,1,5,0.00
2013-9-28,77.4,66.4,56.3,61.0,55.9,53.0,91,71,47,30.14,29.83,10,2,10,0.00
2013-9-29,74.3,59.4,51.6,62.0,52.7,48.0,96,79,53,30.04,29.83,15,4,21,0.00
2013-9-30,66.3,57.3,46.6,57.0,50.8,46.0,96,80,55,30.02,29.85,6,1,8,0.00
2013-10-1,75.3,67.7,59.6,63.0,58.7,48.0,84,73,58,29.88,29.73,19,6,31,0.00
2013-10-2,67.0,62.4,56.1,59.0,54.2,50.0,89,75,65,30.09,29.86,13,4,14,0.00
2013-10-3,68.1,60.1,55.3,61.0,53.8,43.0,97,81,56,30.06,29.92,6,1,10,0.00
2013-10-4,62.3,59.9,57.2,62.0,59.2,56.0,98,97,95,30.08,29.91,5,1,6,0.00
2013-10-5,63.5,59.5,56.5,61.0,57.9,56.0,98,94,89,30.08,29.84,7,3,11,0.00
2013-10-6,64.8,59.4,55.0,64.0,57.0,50.0,98,92,78,29.81,29.64,14,4,20,0.00
2013-10-7,59.4,55.1,49.7,54.0,49.4,46.0,96,81,69,30.08,29.59,17,6,20,0.00
2013-10-8,69.4,57.3,46.7,54.0,47.9,44.0,92,72,45,30.21,30.09,5,1,7,0.00
2013-10-9,68.1,62.1,53.3,58.0,52.7,49.0,90,72,63,30.25,30.15,7,3,11,0.00
2013-10-10,65.1,57.8,52.0,59.0,51.5,45.0,94,80,59,30.23,30.12,3,0,6,0.00
2013-10-11,68.9,59.0,51.2,53.0,49.9,47.0,96,73,48,30.16,30.05,3,1,5,0.00
2013-10-12,75.3,63.3,55.9,61.0,53.4,45.0,93,71,54,30.05,29.92,13,4,27,0.00
2013-10-13,61.1,56.0,51.5,52.0,48.1,44.0,81,75,68,30.41,30.06,15,5,21,0.00
2013-10-14,57.0,50.2,44.5,46.0,43.1,38.0,94,78,52,30.48,30.31,3,0,4,0.00
2013-10-15,59.0,52.5,46.5,58.0,49.1,42.0,97,88,77,30.30,29.73,5,2,9,0.00
2013-10-16,58.9,53.9,51.6,57.0,49.7,43.0,95,86,72,29.89,29.70,18,8,19,0.00
2013-10-17,51.8,49.9,46.1,44.0,41.5,39.0,82,73,66,29.90,29.77,7,2,9,0.00
2013-10-18,54.7,50.4,44.4,48.0,45.5,41.0,96,83,69,29.84,29.77,13,3,16,0.00
2013-10-19,50.4,46.1,39.2,45.0,40.6,37.0,96,82,61,29.83,29.72,12,2,27,0.00
2013-10-20,50.2,45.2,39.1,44.0,40.3,38.0,96,84,63,29.86,29.68,11,3,14,0.00
2013-10-21,52.4,46.2,38.5,49.0,40.3,29.0,97,80,62,29.81,29.66,27,14,30,0.00
2013-10-22,46.0,42.9,36.8,40.0,36.9,32.0,92,80,69,29.91,29.72,28,11,34,0.00
2013-10-23,44.6,41.3,34.8,37.0,32.8,29.0,94,73,58,29.93,29.87,18,6,27,0.00
2013-10-24,46.0,42.9,37.2,39.0,35.1,31.0,95,74,60,30.18,29.91,11,7,13,0.00
2013-10-25,48.8,43.7,40.4,41.0,34.4,31.0,90,70,61,30.27,29.80,17,7,29,0.00
2013-10-26,53.2,47.2,43.6,44.0,39.0,34.0,87,73,66,29.99,29.63,25,13,33,0.00
2013-10-27,52.6,46.1,43.2,43.0,36.0,31.0,74,68,58,30.00,29.88,18,7,24,0.00
2013-10-28,48.9,39.4,33.9,40.0,31.2,26.0,81,72,64,30.49,30.02,8,2,22,0.00
2013-10-29,42.5,36.9,30.9,34.0,30.0,26.0,88,77,58,30.51,30.25,5,1,5,0.00
2013-10-30,58.1,46.9,39.2,50.0,42.0,34.0,93,83,65,30.25,29.84,3,0,6,0.00
2013-10-31,61.2,56.3,53.3,60.0,55.4,52.0,98,96,94,29.75,29.06,8,1,10,0.00
2013-11-1,53.5,48.6,43.8,53.0,46.3,40.0,98,92,85,29.70,29.03,18,7,23,0.00
2013-11-2,44.1,41.1,36.7,40.0,37.2,34.0,95,86,76,30.18,29.70,5,1,10,0.00
2013-11-3,44.9,39.6,34.9,35.0,32.9,30.0,90,77,64,30.39,30.18,5,1,9,0.00
2013-11-4,50.7,44.2,37.4,37.0,33.5,29.0,84,67,49,30.41,30.15,9,3,12,0.00
2013-11-5,52.0,51.2,49.9,50.0,46.7,37.0,95,85,61,30.29,30.00,11,2,12,0.00
2013-11-6,54.3,47.4,40.1,53.0,44.6,33.0,96,90,75,30.03,29.68,15,6,18,0.00
2013-11-7,40.6,39.5,37.2,35.0,32.6,29.0,87,76,67,30.12,30.03,14,10,22,0.00
2013-11-8,40.7,39.4,35.6,34.0,30.0,27.0,81,69,60,30.25,30.07,14,6,18,0.00
2013-11-9,49.1,43.9,37.7,45.0,38.9,32.0,94,83,72,30.07,29.67,26,12,31,0.00
2013-11-10,46.2,43.0,41.3,39.0,35.4,32.0,83,75,68,30.24,29.85,25,12,30,0.00
2013-11-11,46.7,35.0,30.1,39.0,28.7,20.0,93,78,62,30.44,30.00,23,11,32,0.00
2013-11-12,34.6,31.3,29.3,29.0,22.7,20.0,90,71,62,30.62,30.45,13,8,20,0.00
2013-11-13,43.6,37.9,32.9,33.0,28.5,23.0,84,69,59,30.49,29.96,23,13,39,0.00
2013-11-14,45.0,43.5,42.0,40.0,35.1,31.0,84,72,63,29.96,29.85,26,12,33,0.00
2013-11-15,51.0,45.6,42.2,41.0,38.8,37.0,86,77,66,29.96,29.86,10,5,15,0.00
2013-11-16,55.7,48.9,40.3,53.0,44.4,36.0,92,84,77,29.97,29.53,13,4,18,0.00
2013-11-17,60.4,54.8,45.4,58.0,52.7,41.0,98,93,84,29.54,29.06,27,7,33,0.00
2013-11-18,45.1,38.6,34.8,40.0,31.6,25.0,86,76,67,30.18,29.33,31,18,38,0.00
2013-11-19,36.0,33.9,32.3,27.0,25.8,23.0,79,72,66,30.40,30.19,11,3,14,0.00
2013-11-20,45.3,38.3,33.4,31.0,26.9,24.0,73,64,44,30.37,30.21,8,2,12,0.00
2013-11-21,43.6,40.9,37.1,42.0,36.9,29.0,94,86,65,30.23,30.18,5,1,9,0.00
2013-11-22,41.7,35.1,32.3,40.0,30.5,23.0,95,83,60,30.41,30.21,18,7,27,0.00
2013-11-23,34.4,24.5,20.6,27.0,18.3,13.0,92,77,60,30.60,30.30,20,13,25,0.00
2013-11-24,27.6,22.2,20.6,21.0,14.9,12.0,87,74,67,30.62,30.17,21,8,28,0.00
2013-11-25,39.7,34.4,27.8,34.0,29.1,21.0,95,81,64,30.17,29.91,27,17,33,0.00
2013-11-26,39.3,32.4,24.3,35.0,28.2,18.0,94,84,76,30.12,29.94,18,8,25,0.00
2013-11-27,27.0,25.2,23.6,23.0,17.7,14.0,90,73,61,30.23,30.07,14,5,24,0.00
2013-11-28,25.1,22.8,20.4,23.0,20.2,16.0,93,90,77,30.48,30.23,6,2,9,0.00
2013-11-29,32.0,25.8,19.8,27.0,22.4,18.0,94,87,76,30.65,30.48,9,2,10,0.00
2013-11-30,40.7,34.7,25.6,37.0,29.9,21.0,87,82,78,30.49,30.06,12,5,17,0.00
2013-12-1,37.1,35.5,34.0,33.0,31.2,29.0,89,85,78,30.14,30.03,2,0,5,0.00
2013-12-2,37.3,35.3,33.1,31.0,29.7,28.0,84,80,73,30.03,29.91,7,2,10,0.00
2013-12-3,33.3,31.3,29.9,30.0,26.5,22.0,96,82,65,29.98,29.90,7,3,14,0.00
2013-12-4,50.7,37.2,31.6,49.0,36.2,31.0,97,96,94,29.92,29.45,13,6,18,0.00
2013-12-5,51.4,33.0,21.9,48.0,28.2,18.0,92,82,76,30.14,29.44,33,20,39,0.00
2013-12-6,23.0,21.5,19.8,18.0,16.1,14.0,88,80,70,30.42,30.14,18,10,21,0.00
2013-12-7,21.6,19.5,18.0,17.0,13.4,8.0,84,77,65,30.61,30.43,17,11,22,0.00
2013-12-8,22.5,18.7,16.8,21.0,14.1,10.0,92,82,70,30.60,30.06,11,4,13,0.00
2013-12-9,29.6,23.3,13.7,26.0,20.0,11.0,94,87,74,30.07,29.85,31,14,38,0.00
2013-12-10,20.4,16.0,11.2,16.0,12.4,8.0,92,85,74,30.15,29.85,24,13,30,0.00
2013-12-11,17.7,15.6,14.1,14.0,10.8,8.0,87,81,74,30.41,30.15,17,12,24,0.00
2013-12-12,23.2,17.9,13.0,17.0,13.7,9.0,90,83,71,30.41,30.12,22,15,34,0.00
2013-12-13,23.0,17.6,11.7,17.0,10.9,4.0,84,75,68,30.44,30.13,15,5,21,0.00
2013-12-14,20.9,16.8,11.0,18.0,12.9,5.0,91,84,73,30.45,29.96,8,3,14,0.00
2013-12-15,25.9,21.7,19.0,24.0,18.3,15.0,94,87,77,30.04,29.79,18,10,26,0.00
2013-12-16,19.5,16.8,13.4,16.0,13.4,11.0,91,86,74,30.20,29.98,8,3,18,0.00
2013-12-17,31.3,24.9,17.6,26.0,21.5,15.0,93,87,74,29.97,29.84,17,7,23,0.00
2013-12-18,32.6,25.5,23.4,26.0,19.7,18.0,82,79,75,30.06,29.76,13,6,17,0.00
2013-12-19,36.5,30.4,25.1,31.0,25.6,21.0,86,82,77,30.13,29.75,15,4,18,0.00
2013-12-20,25.0,23.8,21.8,23.0,21.7,20.0,93,92,84,30.04,29.88,5,1,8,0.00
2013-12-21,29.1,27.0,24.6,27.0,24.8,23.0,95,91,87,30.01,29.86,5,1,9,0.00
2013-12-22,26.8,22.5,19.1,24.0,20.4,17.0,93,91,87,30.10,29.81,7,2,10,0.00
2013-12-23,20.9,19.0,16.3,17.0,15.7,11.0,93,86,76,30.39,30.10,7,1,9,0.00
2013-12-24,16.8,15.1,11.6,13.0,10.2,7.0,85,80,77,30.53,30.39,8,2,11,0.00
2013-12-25,26.3,21.3,15.5,23.0,18.2,12.0,93,87,80,30.42,30.07,19,7,23,0.00
2013-12-26,25.7,24.0,22.5,23.0,19.4,16.0,91,82,74,30.26,30.03,14,7,19,0.00
2013-12-27,39.1,28.9,22.2,34.0,24.2,17.0,87,82,77,30.28,29.92,20,6,28,0.00
2013-12-28,45.8,39.1,35.8,37.0,33.9,32.0,88,82,70,30.03,29.76,15,5,20,0.00
2013-12-29,41.5,25.6,15.1,36.0,21.7,9.0,94,85,75,30.13,29.72,17,7,20,0.00
2013-12-30,15.6,14.0,12.2,12.0,8.9,7.0,86,80,74,30.30,30.13,14,7,19,0.00
2013-12-31,13.5,12.5,11.0,11.0,7.9,5.0,89,82,74,30.39,30.09,18,11,28,0.00
2014-1-1,13.8,12.4,10.5,9.0,6.3,4.0,83,77,70,30.50,30.39,8,3,13,0.00
2014-1-2,15.1,11.1,9.6,11.0,5.3,3.0,85,77,67,30.44,30.34,9,3,14,0.00